createdAt,value
2019-06-27T00:00:01.464Z,1.73
2019-06-27T00:02:06.667Z,2.30
2019-06-27T00:04:11.245Z,2.83
2019-06-27T00:06:15.762Z,2.33
2019-06-27T00:08:22.133Z,2.27
2019-06-27T00:10:27.159Z,1.93
2019-06-27T00:12:32.045Z,2.90
2019-06-27T00:14:41.081Z,2.37
2019-06-27T00:16:46.490Z,2.33
2019-06-27T00:18:50.602Z,2.10
2019-06-27T00:21:01.042Z,1.80
2019-06-27T00:23:05.415Z,2.37
2019-06-27T00:25:15.185Z,2.10
2019-06-27T00:27:22.016Z,1.77
2019-06-27T00:29:26.532Z,2.30
2019-06-27T00:31:49.517Z,3.23
2019-06-27T00:33:53.501Z,2.27
2019-06-27T00:35:57.396Z,3.17
2019-06-27T00:38:01.324Z,2.67
2019-06-27T00:40:06.029Z,2.50
2019-06-27T00:42:09.942Z,3.67
2019-06-27T00:44:13.913Z,2.33
2019-06-27T00:46:17.953Z,1.97
2019-06-27T00:48:21.954Z,3.37
2019-06-27T00:50:25.933Z,2.37
2019-06-27T00:52:29.784Z,2.40
2019-06-27T00:54:33.721Z,2.53
2019-06-27T00:56:37.577Z,3.00
2019-06-27T00:58:41.506Z,1.77
2019-06-27T01:00:45.474Z,3.10
2019-06-27T01:02:49.366Z,2.00
2019-06-27T01:04:53.349Z,2.30
2019-06-27T01:06:57.341Z,2.67
2019-06-27T01:09:01.384Z,2.23
2019-06-27T01:11:05.340Z,3.23
2019-06-27T01:13:09.249Z,1.57
2019-06-27T01:15:13.842Z,1.93
2019-06-27T01:17:17.892Z,2.70
2019-06-27T01:19:21.763Z,2.50
2019-06-27T01:21:25.676Z,1.50
2019-06-27T01:23:29.580Z,2.27
2019-06-27T01:25:33.611Z,2.40
2019-06-27T01:27:37.518Z,2.10
2019-06-27T01:29:41.500Z,2.00
2019-06-27T01:31:45.490Z,2.37
2019-06-27T01:33:49.435Z,2.00
2019-06-27T01:35:53.366Z,2.47
2019-06-27T01:37:57.340Z,3.73
2019-06-27T01:40:01.277Z,2.17
2019-06-27T01:42:05.379Z,2.13
2019-06-27T01:44:28.520Z,2.20
2019-06-27T01:46:32.573Z,2.33
2019-06-27T01:48:36.532Z,2.70
2019-06-27T01:50:40.405Z,2.07
2019-06-27T01:52:44.365Z,2.83
2019-06-27T01:54:48.553Z,2.30
2019-06-27T01:56:52.466Z,1.83
2019-06-27T01:58:56.388Z,2.03
2019-06-27T02:01:00.619Z,2.33
2019-06-27T02:03:04.778Z,2.53
2019-06-27T02:05:08.895Z,2.27
2019-06-27T02:07:12.902Z,2.97
2019-06-27T02:09:16.824Z,3.00
2019-06-27T02:11:20.812Z,2.07
2019-06-27T02:13:24.923Z,2.30
2019-06-27T02:15:29.104Z,2.60
2019-06-27T02:17:33.141Z,2.47
2019-06-27T02:19:37.008Z,2.37
2019-06-27T02:21:41.033Z,2.63
2019-06-27T02:23:44.881Z,2.27
2019-06-27T02:25:48.772Z,2.60
2019-06-27T02:28:03.078Z,2.80
2019-06-27T02:29:58.395Z,2.40
2019-06-27T02:32:02.522Z,1.70
2019-06-27T02:34:07.327Z,2.87
2019-06-27T02:36:11.558Z,2.47
2019-06-27T02:38:15.510Z,2.47
2019-06-27T02:40:19.512Z,2.60
2019-06-27T02:42:23.625Z,2.10
2019-06-27T02:44:27.599Z,1.90
2019-06-27T02:46:31.622Z,3.07
2019-06-27T02:48:35.704Z,2.33
2019-06-27T02:50:39.686Z,2.73
2019-06-27T02:52:43.763Z,3.00
2019-06-27T02:54:47.771Z,2.67
2019-06-27T02:56:51.813Z,2.20
2019-06-27T02:58:55.736Z,2.73
2019-06-27T03:00:59.585Z,2.37
2019-06-27T03:03:03.582Z,2.43
2019-06-27T03:05:08.004Z,2.43
2019-06-27T03:07:11.997Z,2.77
2019-06-27T03:09:15.967Z,1.90
2019-06-27T03:11:19.949Z,1.90
2019-06-27T03:13:24.000Z,2.40
2019-06-27T03:15:28.011Z,2.90
2019-06-27T03:17:31.893Z,2.30
2019-06-27T03:19:35.848Z,2.70
2019-06-27T03:21:39.851Z,2.27
2019-06-27T03:23:43.739Z,2.57
2019-06-27T03:25:47.723Z,3.07
2019-06-27T03:27:51.673Z,2.40
2019-06-27T03:29:55.546Z,3.00
2019-06-27T03:31:59.590Z,2.47
2019-06-27T03:34:03.652Z,2.00
2019-06-27T03:36:07.632Z,2.60
2019-06-27T03:38:11.715Z,2.17
2019-06-27T03:40:15.794Z,2.10
2019-06-27T03:42:19.844Z,2.77
2019-06-27T03:44:23.826Z,2.70
2019-06-27T03:46:27.715Z,2.10
2019-06-27T03:48:31.694Z,1.50
2019-06-27T03:50:35.659Z,2.40
2019-06-27T03:52:39.674Z,1.70
2019-06-27T03:54:43.590Z,2.50
2019-06-27T03:56:47.559Z,2.60
2019-06-27T03:59:10.717Z,2.03
2019-06-27T04:00:57.172Z,3.00
2019-06-27T04:03:01.269Z,3.10
2019-06-27T04:05:05.460Z,1.77
2019-06-27T04:07:09.422Z,2.03
2019-06-27T04:09:13.350Z,2.73
2019-06-27T04:11:17.363Z,2.77
2019-06-27T04:13:21.267Z,3.07
2019-06-27T04:15:26.464Z,2.40
2019-06-27T04:17:30.422Z,2.37
2019-06-27T04:19:34.501Z,1.27
2019-06-27T04:21:38.506Z,4.40
2019-06-27T04:23:42.518Z,2.00
2019-06-27T04:25:46.584Z,2.30
2019-06-27T04:27:50.602Z,2.70
2019-06-27T04:29:54.529Z,2.07
2019-06-27T04:31:58.605Z,2.27
2019-06-27T04:34:02.819Z,2.37
2019-06-27T04:36:06.943Z,2.03
2019-06-27T04:38:11.032Z,2.20
2019-06-27T04:40:15.228Z,2.10
2019-06-27T04:42:19.121Z,3.10
2019-06-27T04:44:23.178Z,2.97
2019-06-27T04:46:27.141Z,3.10
2019-06-27T04:48:31.070Z,2.97
2019-06-27T04:50:34.971Z,2.03
2019-06-27T04:52:39.006Z,3.53
2019-06-27T04:54:42.848Z,2.67
2019-06-27T04:56:46.895Z,3.50
2019-06-27T04:58:50.834Z,3.07
2019-06-27T05:00:54.770Z,2.37
2019-06-27T05:02:58.802Z,3.47
2019-06-27T05:05:03.228Z,3.80
2019-06-27T05:07:07.196Z,4.03
2019-06-27T05:09:11.272Z,3.80
2019-06-27T05:11:15.272Z,2.33
2019-06-27T05:13:19.241Z,2.97
2019-06-27T05:15:23.101Z,3.40
2019-06-27T05:17:27.001Z,2.47
2019-06-27T05:19:30.916Z,2.30
2019-06-27T05:21:34.918Z,2.90
2019-06-27T05:23:38.874Z,3.30
2019-06-27T05:25:42.799Z,2.93
2019-06-27T05:27:46.676Z,2.50
2019-06-27T05:29:50.557Z,3.60
2019-06-27T05:31:54.550Z,2.20
2019-06-27T05:33:58.456Z,2.13
2019-06-27T05:36:02.719Z,2.17
2019-06-27T05:38:06.652Z,2.27
2019-06-27T05:40:11.191Z,3.13
2019-06-27T05:42:15.212Z,2.63
2019-06-27T05:44:19.150Z,3.70
2019-06-27T05:46:22.987Z,3.67
2019-06-27T05:48:26.919Z,3.20
2019-06-27T05:50:30.969Z,2.53
2019-06-27T05:52:34.960Z,3.07
2019-06-27T05:54:38.855Z,3.10
2019-06-27T05:56:42.794Z,3.27
2019-06-27T05:58:46.724Z,4.50
2019-06-27T06:00:53.720Z,3.23
2019-06-27T06:02:57.890Z,3.20
2019-06-27T06:05:02.076Z,2.60
2019-06-27T06:07:06.105Z,3.70
2019-06-27T06:09:10.000Z,3.20
2019-06-27T06:11:13.883Z,3.67
2019-06-27T06:13:18.016Z,2.47
2019-06-27T06:15:22.036Z,3.50
2019-06-27T06:17:25.992Z,2.77
2019-06-27T06:19:29.877Z,2.83
2019-06-27T06:21:36.800Z,1.73
2019-06-27T06:23:40.751Z,3.17
2019-06-27T06:25:44.771Z,2.83
2019-06-27T06:27:48.846Z,2.20
2019-06-27T06:29:52.936Z,3.23
2019-06-27T06:31:56.887Z,3.07
2019-06-27T06:34:00.994Z,2.87
2019-06-27T06:36:05.027Z,2.23
2019-06-27T06:38:09.012Z,2.70
2019-06-27T06:40:13.177Z,2.90
2019-06-27T06:42:17.318Z,3.20
2019-06-27T06:44:21.294Z,2.27
2019-06-27T06:46:25.273Z,2.47
2019-06-27T06:48:29.248Z,2.77
2019-06-27T06:50:33.204Z,2.43
2019-06-27T06:52:37.143Z,2.53
2019-06-27T06:54:41.122Z,2.23
2019-06-27T06:56:45.069Z,2.43
2019-06-27T06:58:48.957Z,2.80
2019-06-27T07:01:01.420Z,2.50
2019-06-27T07:02:58.617Z,2.30
2019-06-27T07:05:02.575Z,3.47
2019-06-27T07:07:06.601Z,2.23
2019-06-27T07:09:10.605Z,2.10
2019-06-27T07:11:14.679Z,2.30
2019-06-27T07:13:18.752Z,2.00
2019-06-27T07:15:22.636Z,2.93
2019-06-27T07:17:26.498Z,2.50
2019-06-27T07:19:30.444Z,2.80
2019-06-27T07:21:34.595Z,2.33
2019-06-27T07:23:38.568Z,1.83
2019-06-27T07:25:42.401Z,2.60
2019-06-27T07:27:46.509Z,2.37
2019-06-27T07:29:50.477Z,2.10
2019-06-27T07:31:54.541Z,2.20
2019-06-27T07:33:58.499Z,2.20
2019-06-27T07:36:03.373Z,2.17
2019-06-27T07:38:07.352Z,2.67
2019-06-27T07:40:11.436Z,2.60
2019-06-27T07:42:15.391Z,1.87
2019-06-27T07:44:20.373Z,1.60
2019-06-27T07:46:25.955Z,2.10
2019-06-27T07:48:30.276Z,1.70
2019-06-27T07:50:34.288Z,2.33
2019-06-27T07:52:38.337Z,2.17
2019-06-27T07:54:42.208Z,1.80
2019-06-27T07:56:46.536Z,2.87
2019-06-27T07:58:50.719Z,2.00
2019-06-27T08:00:54.785Z,1.57
2019-06-27T08:02:58.791Z,1.63
2019-06-27T08:05:02.682Z,2.00
2019-06-27T08:07:06.699Z,1.60
2019-06-27T08:09:10.634Z,1.67
2019-06-27T08:11:14.714Z,1.77
2019-06-27T08:13:18.821Z,1.37
2019-06-27T08:15:22.851Z,1.43
2019-06-27T08:17:26.864Z,1.83
2019-06-27T08:19:30.760Z,1.93
2019-06-27T08:21:34.735Z,1.20
2019-06-27T08:23:41.756Z,1.20
2019-06-27T08:25:44.345Z,1.30
2019-06-27T08:27:48.205Z,1.43
2019-06-27T08:29:52.176Z,1.63
2019-06-27T08:31:56.204Z,2.10
2019-06-27T08:34:00.047Z,1.63
2019-06-27T08:36:04.221Z,1.80
2019-06-27T08:38:08.305Z,2.03
2019-06-27T08:40:14.152Z,2.10
2019-06-27T08:42:18.139Z,1.97
2019-06-27T08:44:22.191Z,2.20
2019-06-27T08:46:29.706Z,1.80
2019-06-27T08:48:31.723Z,2.30
2019-06-27T08:50:35.580Z,1.50
2019-06-27T08:52:39.501Z,1.83
2019-06-27T08:54:43.455Z,2.10
2019-06-27T08:56:47.463Z,2.10
2019-06-27T08:58:51.316Z,2.00
2019-06-27T09:00:55.231Z,1.80
2019-06-27T09:02:59.226Z,1.80
2019-06-27T09:05:03.297Z,1.70
2019-06-27T09:07:07.302Z,1.60
2019-06-27T09:09:11.401Z,1.60
2019-06-27T09:11:15.374Z,1.27
2019-06-27T09:13:19.366Z,1.67
2019-06-27T09:15:23.592Z,2.33
2019-06-27T09:17:27.631Z,2.03
2019-06-27T09:19:31.489Z,2.40
2019-06-27T09:21:35.488Z,2.40
2019-06-27T09:23:39.387Z,1.53
2019-06-27T09:25:43.547Z,1.67
2019-06-27T09:27:47.505Z,1.83
2019-06-27T09:29:51.418Z,1.73
2019-06-27T09:31:55.262Z,1.37
2019-06-27T09:33:59.224Z,1.60
2019-06-27T09:36:03.158Z,1.43
2019-06-27T09:38:07.010Z,2.23
2019-06-27T09:40:11.323Z,1.83
2019-06-27T09:42:15.144Z,2.10
2019-06-27T09:44:19.191Z,1.50
2019-06-27T09:46:23.221Z,2.00
2019-06-27T09:48:27.335Z,2.33
2019-06-27T09:50:31.261Z,1.73
2019-06-27T09:52:35.240Z,1.10
2019-06-27T09:54:39.071Z,1.60
2019-06-27T09:56:43.061Z,1.83
2019-06-27T09:58:49.548Z,1.77
2019-06-27T10:00:53.475Z,1.00
2019-06-27T10:02:57.539Z,0.97
2019-06-27T10:05:01.386Z,1.53
2019-06-27T10:07:05.557Z,1.40
2019-06-27T10:09:09.649Z,2.30
2019-06-27T10:11:13.658Z,1.50
2019-06-27T10:13:17.665Z,1.90
2019-06-27T10:15:21.603Z,1.40
2019-06-27T10:17:25.504Z,1.60
2019-06-27T10:19:29.378Z,2.00
2019-06-27T10:21:33.323Z,1.73
2019-06-27T10:23:37.484Z,1.70
2019-06-27T10:25:41.368Z,1.67
2019-06-27T10:27:45.256Z,1.40
2019-06-27T10:29:49.310Z,1.37
2019-06-27T10:31:53.266Z,1.90
2019-06-27T10:33:57.256Z,1.37
2019-06-27T10:36:01.103Z,1.20
2019-06-27T10:38:05.083Z,1.73
2019-06-27T10:40:09.931Z,1.40
2019-06-27T10:42:13.895Z,1.40
2019-06-27T10:44:17.721Z,1.93
2019-06-27T10:46:21.591Z,1.53
2019-06-27T10:48:25.503Z,1.17
2019-06-27T10:50:29.371Z,1.27
2019-06-27T10:52:33.359Z,1.60
2019-06-27T10:54:37.392Z,1.17
2019-06-27T10:56:41.502Z,1.40
2019-06-27T10:58:45.355Z,1.10
2019-06-27T11:00:49.290Z,1.23
2019-06-27T11:02:53.319Z,1.47
2019-06-27T11:04:57.240Z,1.27
2019-06-27T11:07:01.411Z,1.00
2019-06-27T11:09:06.139Z,1.50
2019-06-27T11:11:09.995Z,1.33
2019-06-27T11:13:13.983Z,1.20
2019-06-27T11:15:18.002Z,1.40
2019-06-27T11:17:22.183Z,1.30
2019-06-27T11:19:26.193Z,0.90
2019-06-27T11:21:30.046Z,1.23
2019-06-27T11:23:33.924Z,1.20
2019-06-27T11:25:37.933Z,1.40
2019-06-27T11:27:41.779Z,1.23
2019-06-27T11:29:47.562Z,1.27
2019-06-27T11:31:51.504Z,1.47
2019-06-27T11:33:55.567Z,1.30
2019-06-27T11:35:59.577Z,2.00
2019-06-27T11:38:03.712Z,1.10
2019-06-27T11:40:11.705Z,1.40
2019-06-27T11:42:14.059Z,1.37
2019-06-27T11:44:18.096Z,1.47
2019-06-27T11:46:22.044Z,1.00
2019-06-27T11:48:26.136Z,1.20
2019-06-27T11:50:30.273Z,1.10
2019-06-27T11:52:34.224Z,1.47
2019-06-27T11:54:38.238Z,1.30
2019-06-27T11:56:42.371Z,1.37
2019-06-27T11:58:46.222Z,1.30
2019-06-27T12:00:50.226Z,1.17
2019-06-27T12:02:54.171Z,1.77
2019-06-27T12:04:58.108Z,0.93
2019-06-27T12:07:01.983Z,1.40
2019-06-27T12:09:06.180Z,1.30
2019-06-27T12:11:10.100Z,1.20
2019-06-27T12:13:14.096Z,1.80
2019-06-27T12:15:18.045Z,1.63
2019-06-27T12:17:22.091Z,1.30
2019-06-27T12:19:26.047Z,1.20
2019-06-27T12:21:29.924Z,1.37
2019-06-27T12:23:33.924Z,1.30
2019-06-27T12:25:37.898Z,1.57
2019-06-27T12:27:41.795Z,1.13
2019-06-27T12:29:45.651Z,1.17
2019-06-27T12:31:51.780Z,1.17
2019-06-27T12:34:06.482Z,1.00
2019-06-27T12:36:02.114Z,1.37
2019-06-27T12:38:06.052Z,1.10
2019-06-27T12:40:10.689Z,2.27
2019-06-27T12:42:31.258Z,1.40
2019-06-27T12:44:20.260Z,1.40
2019-06-27T12:46:24.209Z,1.30
2019-06-27T12:48:28.276Z,2.00
2019-06-27T12:50:32.387Z,1.43
2019-06-27T12:52:36.421Z,1.33
2019-06-27T12:54:40.460Z,1.47
2019-06-27T12:56:44.669Z,1.17
2019-06-27T12:58:48.792Z,0.77
2019-06-27T13:00:52.715Z,1.67
2019-06-27T13:02:56.611Z,1.30
2019-06-27T13:05:00.544Z,1.37
2019-06-27T13:07:04.576Z,1.40
2019-06-27T13:09:08.648Z,1.13
2019-06-27T13:11:12.567Z,1.30
2019-06-27T13:13:16.707Z,1.93
2019-06-27T13:15:20.762Z,1.33
2019-06-27T13:17:24.723Z,1.40
2019-06-27T13:19:28.719Z,1.50
2019-06-27T13:21:32.684Z,1.20
2019-06-27T13:23:36.614Z,1.47
2019-06-27T13:25:40.500Z,1.10
2019-06-27T13:27:44.425Z,1.10
2019-06-27T13:29:48.378Z,1.40
2019-06-27T13:31:52.360Z,1.63
2019-06-27T13:33:56.322Z,1.60
2019-06-27T13:36:00.440Z,1.40
2019-06-27T13:38:04.482Z,1.10
2019-06-27T13:40:08.571Z,1.40
2019-06-27T13:42:12.498Z,1.77
2019-06-27T13:44:16.508Z,1.60
2019-06-27T13:46:20.555Z,1.57
2019-06-27T13:48:24.568Z,1.20
2019-06-27T13:50:28.627Z,1.40
2019-06-27T13:52:32.544Z,1.60
2019-06-27T13:54:36.590Z,1.70
2019-06-27T13:56:40.617Z,1.40
2019-06-27T13:58:44.623Z,1.80
2019-06-27T14:00:48.692Z,1.30
2019-06-27T14:02:52.542Z,1.73
2019-06-27T14:04:57.929Z,2.17
2019-06-27T14:07:02.474Z,1.60
2019-06-27T14:09:06.552Z,1.43
2019-06-27T14:11:10.539Z,1.60
2019-06-27T14:13:14.585Z,2.33
2019-06-27T14:15:19.453Z,1.70
2019-06-27T14:17:23.401Z,1.73
2019-06-27T14:19:27.277Z,1.27
2019-06-27T14:21:31.292Z,1.17
2019-06-27T14:23:35.250Z,1.43
2019-06-27T14:25:39.226Z,1.83
2019-06-27T14:27:43.207Z,1.80
2019-06-27T14:29:47.336Z,1.63
2019-06-27T14:31:51.211Z,2.73
2019-06-27T14:33:55.231Z,2.20
2019-06-27T14:35:59.237Z,1.67
2019-06-27T14:38:03.422Z,1.50
2019-06-27T14:40:08.020Z,1.47
2019-06-27T14:42:12.018Z,1.33
2019-06-27T14:44:16.062Z,1.40
2019-06-27T14:46:20.122Z,1.87
2019-06-27T14:48:24.161Z,2.00
2019-06-27T14:50:28.055Z,1.83
2019-06-27T14:52:34.762Z,1.73
2019-06-27T14:54:37.739Z,1.60
2019-06-27T14:56:41.629Z,2.07
2019-06-27T14:58:45.719Z,1.80
2019-06-27T15:00:49.916Z,2.33
2019-06-27T15:02:54.008Z,1.77
2019-06-27T15:04:57.939Z,1.30
2019-06-27T15:07:01.851Z,2.23
2019-06-27T15:09:05.950Z,2.30
2019-06-27T15:11:09.831Z,2.23
2019-06-27T15:13:13.665Z,2.20
2019-06-27T15:15:17.979Z,1.83
2019-06-27T15:17:21.948Z,2.50
2019-06-27T15:19:26.124Z,2.20
2019-06-27T15:21:30.272Z,2.43
2019-06-27T15:23:34.187Z,2.00
2019-06-27T15:25:38.162Z,1.90
2019-06-27T15:27:42.618Z,2.07
2019-06-27T15:29:46.796Z,1.63
2019-06-27T15:31:50.737Z,2.50
2019-06-27T15:33:54.659Z,1.77
2019-06-27T15:35:58.516Z,2.30
2019-06-27T15:38:02.416Z,2.13
2019-06-27T15:40:06.651Z,1.70
2019-06-27T15:42:10.687Z,1.80
2019-06-27T15:44:14.583Z,2.20
2019-06-27T15:46:18.693Z,2.00
2019-06-27T15:48:22.827Z,2.17
2019-06-27T15:50:27.003Z,2.37
2019-06-27T15:52:31.084Z,2.30
2019-06-27T15:54:35.224Z,2.10
2019-06-27T15:56:39.297Z,2.20
2019-06-27T15:58:43.738Z,2.60
2019-06-27T16:00:47.576Z,2.40
2019-06-27T16:02:51.739Z,2.13
2019-06-27T16:04:56.064Z,1.90
2019-06-27T16:07:00.056Z,2.30
2019-06-27T16:09:04.899Z,2.20
2019-06-27T16:11:09.037Z,1.40
2019-06-27T16:13:12.998Z,1.73
2019-06-27T16:15:17.242Z,1.70
2019-06-27T16:17:21.172Z,1.97
2019-06-27T16:19:25.131Z,2.00
2019-06-27T16:21:29.201Z,1.77
2019-06-27T16:23:33.077Z,2.20
2019-06-27T16:25:37.078Z,2.10
2019-06-27T16:27:41.063Z,1.73
2019-06-27T16:29:45.102Z,1.93
2019-06-27T16:31:49.094Z,2.40
2019-06-27T16:33:53.107Z,2.67
2019-06-27T16:35:57.293Z,2.33
2019-06-27T16:38:01.285Z,2.13
2019-06-27T16:40:05.900Z,2.00
2019-06-27T16:42:10.008Z,2.00
2019-06-27T16:44:14.021Z,1.90
2019-06-27T16:46:18.080Z,2.00
2019-06-27T16:48:22.324Z,2.00
2019-06-27T16:50:26.291Z,1.60
2019-06-27T16:52:30.308Z,2.20
2019-06-27T16:54:34.413Z,2.07
2019-06-27T16:56:38.500Z,1.60
2019-06-27T16:58:42.549Z,2.20
2019-06-27T17:00:46.547Z,1.80
2019-06-27T17:02:50.945Z,2.17
2019-06-27T17:04:54.884Z,2.40
2019-06-27T17:06:58.770Z,1.40
2019-06-27T17:09:02.632Z,1.27
2019-06-27T17:11:06.560Z,1.30
2019-06-27T17:13:10.459Z,1.70
2019-06-27T17:15:15.020Z,1.37
2019-06-27T17:17:19.023Z,1.90
2019-06-27T17:19:22.926Z,1.47
2019-06-27T17:21:26.857Z,1.50
2019-06-27T17:23:30.866Z,2.23
2019-06-27T17:25:34.836Z,1.47
2019-06-27T17:27:38.723Z,1.90
2019-06-27T17:29:42.676Z,1.60
2019-06-27T17:31:46.871Z,1.53
2019-06-27T17:33:50.824Z,1.10
2019-06-27T17:35:54.853Z,1.77
2019-06-27T17:37:58.715Z,1.97
2019-06-27T17:40:02.669Z,1.60
2019-06-27T17:42:06.758Z,2.57
2019-06-27T17:44:10.696Z,1.97
2019-06-27T17:46:14.587Z,1.60
2019-06-27T17:48:18.533Z,2.37
2019-06-27T17:50:22.603Z,1.53
2019-06-27T17:52:26.671Z,1.60
2019-06-27T17:54:30.564Z,1.90
2019-06-27T17:56:34.561Z,1.40
2019-06-27T17:58:38.628Z,1.60
2019-06-27T18:00:42.610Z,1.93
2019-06-27T18:02:46.853Z,2.23
2019-06-27T18:04:51.019Z,1.40
2019-06-27T18:06:55.026Z,2.60
2019-06-27T18:08:58.977Z,1.80
2019-06-27T18:11:03.020Z,1.83
2019-06-27T18:13:07.179Z,1.70
2019-06-27T18:15:11.663Z,1.60
2019-06-27T18:17:15.698Z,2.33
2019-06-27T18:19:20.383Z,2.23
2019-06-27T18:21:24.319Z,2.10
2019-06-27T18:23:28.334Z,2.80
2019-06-27T18:25:32.336Z,3.00
2019-06-27T18:27:36.306Z,2.50
2019-06-27T18:29:40.215Z,2.70
2019-06-27T18:31:44.160Z,2.70
2019-06-27T18:33:48.310Z,2.60
2019-06-27T18:35:52.505Z,2.00
2019-06-27T18:37:56.501Z,1.90
2019-06-27T18:40:00.466Z,2.60
2019-06-27T18:42:04.544Z,2.60
2019-06-27T18:44:08.774Z,2.77
2019-06-27T18:46:12.877Z,1.57
2019-06-27T18:48:16.960Z,2.27
2019-06-27T18:50:20.985Z,1.43
2019-06-27T18:52:25.548Z,2.70
2019-06-27T18:54:29.407Z,2.00
2019-06-27T18:56:33.440Z,2.60
2019-06-27T18:58:37.456Z,2.70
2019-06-27T19:00:41.507Z,2.37
2019-06-27T19:02:45.672Z,2.50
2019-06-27T19:04:49.700Z,2.60
2019-06-27T19:06:54.019Z,2.60
2019-06-27T19:08:58.181Z,3.00
2019-06-27T19:11:02.393Z,3.20
2019-06-27T19:13:06.445Z,2.57
2019-06-27T19:15:11.182Z,2.80
2019-06-27T19:17:15.317Z,2.70
2019-06-27T19:19:22.015Z,3.27
2019-06-27T19:21:31.875Z,2.80
2019-06-27T19:24:03.731Z,2.50
2019-06-27T19:26:07.903Z,2.83
2019-06-27T19:28:12.053Z,3.20
2019-06-27T19:30:16.345Z,3.17
2019-06-27T19:32:20.459Z,2.63
2019-06-27T19:34:24.328Z,2.43
2019-06-27T19:36:28.342Z,1.53
2019-06-27T19:38:33.461Z,2.73
2019-06-27T19:40:37.670Z,1.77
2019-06-27T19:42:41.523Z,2.70
2019-06-27T19:44:45.441Z,2.40
2019-06-27T19:46:49.363Z,2.60
2019-06-27T19:48:53.288Z,3.83
2019-06-27T19:50:57.254Z,2.23
2019-06-27T19:53:01.125Z,1.80
2019-06-27T19:55:05.434Z,2.90
2019-06-27T19:57:09.383Z,2.20
2019-06-27T19:59:13.264Z,3.33
2019-06-27T20:01:17.264Z,2.10
2019-06-27T20:03:21.250Z,2.27
2019-06-27T20:05:25.191Z,1.97
2019-06-27T20:07:31.492Z,2.40
2019-06-27T20:09:35.587Z,2.17
2019-06-27T20:11:39.595Z,2.30
2019-06-27T20:13:43.548Z,2.50
2019-06-27T20:15:47.577Z,2.20
2019-06-27T20:17:51.736Z,3.00
2019-06-27T20:19:55.659Z,3.30
2019-06-27T20:22:01.245Z,3.73
2019-06-27T20:24:05.313Z,2.90
2019-06-27T20:26:09.247Z,2.80
2019-06-27T20:28:13.257Z,2.33
2019-06-27T20:30:18.543Z,2.70
2019-06-27T20:32:22.387Z,3.37
2019-06-27T20:34:26.256Z,1.83
2019-06-27T20:36:30.129Z,3.37
2019-06-27T20:38:35.379Z,2.77
2019-06-27T20:40:39.580Z,3.20
2019-06-27T20:42:43.604Z,2.70
2019-06-27T20:44:47.519Z,3.33
2019-06-27T20:46:51.416Z,3.40
2019-06-27T20:48:55.251Z,3.20
2019-06-27T20:50:59.163Z,3.27
2019-06-27T20:53:03.164Z,3.33
2019-06-27T20:55:07.140Z,3.60
2019-06-27T20:57:11.132Z,2.70
2019-06-27T20:59:15.115Z,3.10
2019-06-27T21:01:19.047Z,3.07
2019-06-27T21:03:23.041Z,3.00
2019-06-27T21:05:27.011Z,3.00
2019-06-27T21:07:34.171Z,3.30
2019-06-27T21:09:38.093Z,3.13
2019-06-27T21:11:41.977Z,2.70
2019-06-27T21:13:45.912Z,3.10
2019-06-27T21:15:50.598Z,3.20
2019-06-27T21:17:54.793Z,2.63
2019-06-27T21:19:58.800Z,2.90
2019-06-27T21:22:02.847Z,2.77
2019-06-27T21:24:06.964Z,3.07
2019-06-27T21:26:10.802Z,2.67
2019-06-27T21:28:14.753Z,2.20
2019-06-27T21:30:19.083Z,2.70
2019-06-27T21:32:31.426Z,2.87
2019-06-27T21:34:29.300Z,3.00
2019-06-27T21:36:33.267Z,1.83
2019-06-27T21:38:37.187Z,2.90
2019-06-27T21:40:41.147Z,3.17
2019-06-27T21:42:45.151Z,2.97
2019-06-27T21:44:49.228Z,2.63
2019-06-27T21:46:53.195Z,3.03
2019-06-27T21:48:57.172Z,3.20
2019-06-27T21:51:01.080Z,3.27
2019-06-27T21:53:05.175Z,3.07
2019-06-27T21:55:09.632Z,2.20
2019-06-27T21:57:13.499Z,2.83
2019-06-27T21:59:17.512Z,2.97
2019-06-27T22:01:21.533Z,3.20
2019-06-27T22:03:25.555Z,3.07
2019-06-27T22:05:29.675Z,3.47
2019-06-27T22:07:33.635Z,2.40
2019-06-27T22:09:37.665Z,2.47
2019-06-27T22:11:41.715Z,2.60
2019-06-27T22:13:45.775Z,2.20
2019-06-27T22:15:49.632Z,2.07
2019-06-27T22:17:53.808Z,2.70
2019-06-27T22:20:13.722Z,2.17
2019-06-27T22:22:03.557Z,3.00
2019-06-27T22:24:07.500Z,2.70
2019-06-27T22:26:11.498Z,2.23
2019-06-27T22:28:15.663Z,2.67
2019-06-27T22:30:19.898Z,1.83
2019-06-27T22:32:23.828Z,2.10
2019-06-27T22:34:27.803Z,2.70
2019-06-27T22:36:31.737Z,2.87
2019-06-27T22:38:53.567Z,2.40
2019-06-27T22:41:15.463Z,2.13
2019-06-27T22:43:37.375Z,3.00
2019-06-27T22:45:59.280Z,2.00
2019-06-27T22:48:15.168Z,2.43
2019-06-27T22:50:35.529Z,2.40
2019-06-27T22:53:05.347Z,2.70
2019-06-27T22:55:14.709Z,2.53
2019-06-27T22:57:18.832Z,2.60
2019-06-27T22:59:22.699Z,2.70
2019-06-27T23:01:26.671Z,2.40
2019-06-27T23:03:30.688Z,2.60
2019-06-27T23:05:34.592Z,3.50
2019-06-27T23:07:38.674Z,2.77
2019-06-27T23:09:56.065Z,2.37
2019-06-27T23:11:48.328Z,2.07
2019-06-27T23:13:52.283Z,2.20
2019-06-27T23:15:56.273Z,1.97
2019-06-27T23:18:00.260Z,2.20
2019-06-27T23:20:04.568Z,2.03
2019-06-27T23:22:08.693Z,1.80
2019-06-27T23:24:12.535Z,1.93
2019-06-27T23:26:16.401Z,1.73
2019-06-27T23:28:20.349Z,2.30
2019-06-27T23:30:24.415Z,2.60
2019-06-27T23:32:28.375Z,2.10
2019-06-27T23:34:32.312Z,2.50
2019-06-27T23:36:36.148Z,2.63
2019-06-27T23:38:40.073Z,1.77
2019-06-27T23:40:44.430Z,2.00
2019-06-27T23:42:48.294Z,1.97
2019-06-27T23:44:52.387Z,1.97
2019-06-27T23:46:56.523Z,2.10
2019-06-27T23:49:00.463Z,2.33
2019-06-27T23:51:04.355Z,2.30
2019-06-27T23:53:08.299Z,1.90
2019-06-27T23:55:12.300Z,1.90
2019-06-27T23:57:16.156Z,1.67
2019-06-27T23:59:20.107Z,2.60
